Time;durP1;ratioP1;P1;durP2;ratioP2;P2;SDS_P1;SDS_P2;PMS_P1;PMS_P2;Temp;Humidity;BMP_temperature;BMP_pressure;BME280_temperature;BME280_humidity;BME280_pressure;Samples;Min_cycle;Max_cycle;Signal;HPM_P1;HPM_P2
2021/12/10 00:00:40;;;;;;;6.00;1.50;;;-1.70;99.90;;;;;;5029794;28;20454;-81
2021/12/10 00:03:15;;;;;;;1.63;1.53;;;-2.00;99.90;;;;;;5030193;28;20489;-80
2021/12/10 00:05:47;;;;;;;1.90;1.00;;;-1.60;99.90;;;;;;5032615;28;20506;-80
2021/12/10 00:08:16;;;;;;;1.47;0.80;;;-1.80;99.90;;;;;;5030840;28;20732;-80
2021/12/10 00:10:51;;;;;;;1.80;1.60;;;-1.80;99.90;;;;;;5031393;28;20539;-80
2021/12/10 00:13:18;;;;;;;2.43;1.80;;;-1.80;99.90;;;;;;5049702;22;20499;-54
2021/12/10 00:15:45;;;;;;;2.50;1.10;;;-1.60;99.90;;;;;;5025447;28;20474;-55
2021/12/10 00:18:19;;;;;;;2.70;1.67;;;-1.30;99.90;;;;;;5018070;28;20494;-54
2021/12/10 00:20:48;;;;;;;1.30;1.20;;;-1.20;99.90;;;;;;5006498;28;20441;-55
2021/12/10 00:23:21;;;;;;;1.23;1.13;;;-1.20;99.90;;;;;;5011280;28;20479;-57
2021/12/10 00:25:50;;;;;;;0.83;0.83;;;-1.20;99.90;;;;;;5007791;28;20499;-58
2021/12/10 00:28:22;;;;;;;1.93;1.30;;;-1.20;99.90;;;;;;5037521;23;20906;-78
2021/12/10 00:31:02;;;;;;;1.50;1.40;;;-1.20;99.90;;;;;;5033747;28;20440;-77
2021/12/10 00:33:31;;;;;;;1.20;1.10;;;-1.10;99.90;;;;;;5018604;28;20465;-77
2021/12/10 00:35:58;;;;;;;3.50;1.30;;;-1.10;99.90;;;;;;5011307;28;20535;-77
2021/12/10 00:38:28;;;;;;;1.40;1.30;;;-1.30;99.90;;;;;;5009122;28;20504;-77
2021/12/10 00:40:55;;;;;;;1.70;1.20;;;-1.30;99.90;;;;;;5010800;28;20472;-77
2021/12/10 00:43:22;;;;;;;0.90;0.90;;;-1.20;99.90;;;;;;5011452;28;21020;-77
2021/12/10 00:45:49;;;;;;;0.80;0.73;;;-1.30;99.90;;;;;;5010330;28;20480;-77
2021/12/10 00:48:17;;;;;;;0.97;0.70;;;-1.20;99.90;;;;;;5009564;28;20480;-78
2021/12/10 00:50:47;;;;;;;1.20;1.10;;;-1.20;99.90;;;;;;5013647;28;20483;-77
2021/12/10 00:53:14;;;;;;;0.90;0.60;;;-1.20;99.90;;;;;;5012197;28;20520;-77
2021/12/10 00:55:42;;;;;;;1.27;0.80;;;-1.70;99.90;;;;;;5010671;28;20500;-77
2021/12/10 00:58:10;;;;;;;0.70;0.70;;;-2.10;99.90;;;;;;5010592;28;20981;-77
2021/12/10 01:00:41;;;;;;;0.90;0.60;;;-2.10;99.90;;;;;;5012913;28;20501;-78
2021/12/10 01:03:10;;;;;;;1.00;0.90;;;-2.10;99.90;;;;;;5012772;28;21091;-77
2021/12/10 01:05:39;;;;;;;1.00;0.90;;;-1.90;99.90;;;;;;5013666;28;20493;-77
2021/12/10 01:08:07;;;;;;;0.70;0.70;;;-1.90;99.90;;;;;;5008360;28;20464;-77
2021/12/10 01:10:38;;;;;;;1.60;1.17;;;-1.70;99.90;;;;;;5013078;28;20480;-77
2021/12/10 01:13:11;;;;;;;0.70;0.70;;;-1.60;99.90;;;;;;5012313;28;20889;-77
2021/12/10 01:15:52;;;;;;;2.17;1.97;;;-1.40;99.90;;;;;;5012939;28;20477;-77
2021/12/10 01:24:06;;;;;;;1.03;0.83;;;-1.40;99.90;;;;;;4962138;28;20651;-77
2021/12/10 01:26:53;;;;;;;0.90;0.90;;;-1.40;99.90;;;;;;5012097;28;20963;-77
2021/12/10 01:29:25;;;;;;;1.50;1.40;;;-1.30;99.90;;;;;;5013173;28;20485;-78
2021/12/10 01:31:53;;;;;;;1.30;1.20;;;-1.30;99.90;;;;;;5013217;28;20483;-77
2021/12/10 01:34:21;;;;;;;2.10;1.40;;;-1.50;99.90;;;;;;5020129;28;20470;-77
2021/12/10 01:36:48;;;;;;;0.87;0.87;;;-1.40;99.90;;;;;;5013634;28;20993;-77
2021/12/10 01:39:18;;;;;;;0.80;0.73;;;-1.40;99.90;;;;;;5012451;28;21095;-77
2021/12/10 01:41:53;;;;;;;1.33;0.57;;;-1.40;99.90;;;;;;5012912;28;20475;-77
2021/12/10 01:44:28;;;;;;;0.93;0.60;;;-1.40;99.90;;;;;;5009076;28;20561;-77
2021/12/10 01:46:57;;;;;;;1.10;0.60;;;-1.40;99.90;;;;;;5014057;28;20452;-77
2021/12/10 01:49:24;;;;;;;0.67;0.67;;;-1.40;99.90;;;;;;5016912;28;20470;-77
2021/12/10 01:51:51;;;;;;;1.03;0.80;;;-1.40;99.90;;;;;;5011613;28;20495;-77
2021/12/10 01:54:24;;;;;;;0.97;0.80;;;-1.30;99.90;;;;;;5014262;28;20554;-77
2021/12/10 01:56:55;;;;;;;0.60;0.60;;;-1.30;99.90;;;;;;5012303;28;20864;-77
2021/12/10 01:59:25;;;;;;;0.50;0.50;;;-1.30;99.90;;;;;;5012164;28;20506;-77
2021/12/10 02:01:54;;;;;;;0.60;0.60;;;-1.50;99.90;;;;;;5008547;28;20483;-77
2021/12/10 02:04:24;;;;;;;0.50;0.40;;;-1.60;99.90;;;;;;5015760;28;20503;-77
2021/12/10 02:06:52;;;;;;;0.77;0.57;;;-2.00;99.90;;;;;;5011495;28;20469;-77
2021/12/10 02:09:21;;;;;;;0.97;0.80;;;-1.90;99.90;;;;;;5009288;28;21246;-77
2021/12/10 02:11:48;;;;;;;0.60;0.57;;;-1.80;99.90;;;;;;5011128;28;20484;-77
2021/12/10 02:14:16;;;;;;;0.87;0.60;;;-1.80;99.90;;;;;;5011677;28;20504;-77
2021/12/10 02:16:44;;;;;;;0.70;0.60;;;-1.80;99.90;;;;;;5010871;28;20950;-77
2021/12/10 02:19:13;;;;;;;0.60;0.60;;;-1.70;99.90;;;;;;5014664;28;20484;-77
2021/12/10 02:21:42;;;;;;;0.70;0.60;;;-1.60;99.90;;;;;;5011529;28;20475;-77
2021/12/10 02:24:11;;;;;;;1.83;0.60;;;-1.60;99.90;;;;;;5011311;28;20977;-77
2021/12/10 02:26:43;;;;;;;0.60;0.40;;;-1.50;99.90;;;;;;5012498;28;20475;-77
2021/12/10 02:29:12;;;;;;;0.50;0.40;;;-1.50;99.90;;;;;;5009985;28;20534;-77
2021/12/10 02:31:40;;;;;;;1.20;0.60;;;-1.50;99.90;;;;;;5013074;28;20528;-77
2021/12/10 02:34:08;;;;;;;0.50;0.47;;;-1.50;99.90;;;;;;5022376;28;21024;-77
2021/12/10 02:36:39;;;;;;;0.50;0.47;;;-1.50;99.90;;;;;;5011682;28;20458;-77
2021/12/10 02:39:08;;;;;;;0.50;0.40;;;-1.80;99.90;;;;;;5009974;28;20484;-77
2021/12/10 02:41:35;;;;;;;1.03;0.87;;;-1.80;99.90;;;;;;5013414;28;20481;-77
2021/12/10 02:44:05;;;;;;;0.73;0.70;;;-2.30;99.90;;;;;;5011152;28;20551;-77
2021/12/10 02:46:32;;;;;;;1.47;0.83;;;-2.10;99.90;;;;;;5011395;28;20475;-77
2021/12/10 02:49:00;;;;;;;3.93;1.20;;;-2.00;99.90;;;;;;5012249;28;20479;-77
2021/12/10 02:51:27;;;;;;;1.57;0.77;;;-1.90;99.90;;;;;;5011137;28;20476;-77
2021/12/10 02:53:55;;;;;;;0.70;0.60;;;-1.80;99.90;;;;;;5010885;28;20558;-77
2021/12/10 02:56:24;;;;;;;1.00;0.87;;;-1.80;99.90;;;;;;5011188;28;20488;-77
2021/12/10 02:58:58;;;;;;;0.70;0.70;;;-1.70;99.90;;;;;;5011054;28;20454;-77
2021/12/10 03:01:30;;;;;;;1.10;1.00;;;-1.70;99.90;;;;;;5015129;28;20507;-77
2021/12/10 03:03:58;;;;;;;0.90;0.77;;;-1.60;99.90;;;;;;5011350;28;20578;-77
2021/12/10 03:06:27;;;;;;;1.17;1.07;;;-1.70;99.90;;;;;;5011710;28;20967;-77
2021/12/10 03:08:55;;;;;;;0.70;0.70;;;-1.80;99.90;;;;;;5016287;28;20441;-77
2021/12/10 03:11:29;;;;;;;0.50;0.50;;;-1.80;99.90;;;;;;5011690;28;20744;-77
2021/12/10 03:13:56;;;;;;;1.53;0.80;;;-1.80;99.90;;;;;;5010697;28;20511;-77
2021/12/10 03:16:24;;;;;;;0.80;0.80;;;-1.80;99.90;;;;;;5011302;28;20471;-77
2021/12/10 03:18:51;;;;;;;0.97;0.90;;;-1.80;99.90;;;;;;5011083;28;20473;-77
2021/12/10 03:21:19;;;;;;;0.60;0.57;;;-1.80;99.90;;;;;;5016408;28;21059;-77
2021/12/10 03:23:48;;;;;;;0.90;0.70;;;-1.80;99.90;;;;;;5011721;28;20504;-77
2021/12/10 03:26:18;;;;;;;0.70;0.70;;;-1.80;99.90;;;;;;5009941;28;20968;-77
2021/12/10 03:28:49;;;;;;;0.70;0.70;;;-2.10;99.90;;;;;;5010756;28;20485;-77
2021/12/10 03:31:17;;;;;;;0.70;0.70;;;-2.10;99.90;;;;;;5014148;28;20478;-77
2021/12/10 03:33:44;;;;;;;0.50;0.50;;;-2.10;99.90;;;;;;5012865;28;20555;-77
2021/12/10 03:36:11;;;;;;;1.53;0.70;;;-2.10;99.90;;;;;;5010942;28;20549;-77
2021/12/10 03:38:40;;;;;;;1.10;1.00;;;-2.10;99.90;;;;;;5011288;28;20474;-76
2021/12/10 03:41:08;;;;;;;0.70;0.70;;;-2.10;99.90;;;;;;5014693;28;21068;-77
2021/12/10 03:43:35;;;;;;;0.70;0.70;;;-2.20;99.90;;;;;;5012039;28;20916;-77
2021/12/10 03:46:06;;;;;;;0.83;0.80;;;-2.10;99.90;;;;;;5015221;28;21008;-77
2021/12/10 03:48:37;;;;;;;0.80;0.53;;;-2.10;99.90;;;;;;5009494;28;20439;-77
2021/12/10 03:51:07;;;;;;;0.60;0.53;;;-2.10;99.90;;;;;;5016324;28;20945;-77
2021/12/10 03:53:35;;;;;;;0.60;0.60;;;-2.10;99.90;;;;;;5010581;28;20966;-77
2021/12/10 03:56:05;;;;;;;0.80;0.60;;;-2.10;99.90;;;;;;5013644;28;20455;-77
2021/12/10 03:58:32;;;;;;;0.70;0.70;;;-2.10;99.90;;;;;;5012290;28;20486;-77
2021/12/10 04:01:00;;;;;;;0.50;0.40;;;-2.20;99.90;;;;;;5010384;28;20558;-77
2021/12/10 04:03:30;;;;;;;0.60;0.60;;;-2.20;99.90;;;;;;5011823;28;20503;-77
2021/12/10 04:05:57;;;;;;;0.70;0.70;;;-2.20;99.90;;;;;;5010386;28;20536;-77
2021/12/10 04:08:25;;;;;;;0.70;0.70;;;-2.20;99.90;;;;;;5009534;28;20546;-77
2021/12/10 04:10:53;;;;;;;0.60;0.60;;;-2.20;99.90;;;;;;5009422;28;20467;-77
2021/12/10 04:13:21;;;;;;;0.63;0.60;;;-2.40;99.90;;;;;;5012211;28;20494;-77
2021/12/10 04:15:48;;;;;;;0.53;0.53;;;-2.40;99.90;;;;;;5011083;28;20478;-77
2021/12/10 04:18:16;;;;;;;0.70;0.70;;;-2.40;99.90;;;;;;5009273;28;20908;-78
2021/12/10 04:20:45;;;;;;;0.70;0.63;;;-2.40;99.90;;;;;;5009390;28;21033;-77
2021/12/10 04:23:19;;;;;;;0.57;0.50;;;-2.30;99.90;;;;;;5010038;28;20534;-77
2021/12/10 04:25:47;;;;;;;1.07;0.93;;;-2.30;99.90;;;;;;5010661;28;20459;-77
2021/12/10 04:28:20;;;;;;;0.60;0.60;;;-2.30;99.90;;;;;;5013283;28;20539;-77
2021/12/10 04:30:48;;;;;;;1.87;0.70;;;-2.30;99.90;;;;;;5010127;28;20550;-77
2021/12/10 04:33:18;;;;;;;0.70;0.70;;;-2.30;99.90;;;;;;5016954;28;20490;-77
2021/12/10 04:35:49;;;;;;;0.93;0.83;;;-2.30;99.90;;;;;;5019080;28;20472;-77
2021/12/10 04:38:17;;;;;;;0.90;0.70;;;-2.30;99.90;;;;;;5015733;28;20481;-77
2021/12/10 04:40:47;;;;;;;0.60;0.60;;;-2.40;99.90;;;;;;5011576;28;20510;-77
2021/12/10 04:43:14;;;;;;;0.90;0.90;;;-2.60;99.90;;;;;;5013644;28;20498;-77
2021/12/10 04:45:41;;;;;;;0.90;0.60;;;-3.50;99.90;;;;;;5012969;28;20509;-77
2021/12/10 04:48:08;;;;;;;1.83;0.80;;;-3.20;99.90;;;;;;5014044;28;20991;-78
2021/12/10 04:50:35;;;;;;;0.70;0.70;;;-3.10;99.90;;;;;;5014508;28;20478;-77
2021/12/10 04:53:07;;;;;;;1.33;0.87;;;-3.20;99.90;;;;;;5017793;28;20952;-77
2021/12/10 04:55:34;;;;;;;1.00;0.80;;;-3.10;99.90;;;;;;5012915;28;20486;-77
2021/12/10 04:58:01;;;;;;;1.80;0.90;;;-3.00;99.90;;;;;;5018392;28;20931;-77
2021/12/10 05:00:32;;;;;;;3.27;1.30;;;-3.10;99.90;;;;;;5017584;28;20518;-77
2021/12/10 05:03:00;;;;;;;2.83;2.63;;;-3.10;99.90;;;;;;5026232;28;20465;-77
2021/12/10 05:05:28;;;;;;;5.97;4.10;;;-3.10;99.90;;;;;;5012906;28;20444;-77
2021/12/10 05:07:55;;;;;;;1.80;1.70;;;-3.00;99.90;;;;;;5014951;28;20482;-77
2021/12/10 05:10:24;;;;;;;0.70;0.70;;;-2.90;99.90;;;;;;5013586;28;20472;-77
2021/12/10 05:12:51;;;;;;;3.03;0.83;;;-2.90;99.90;;;;;;5004840;28;21017;-77
2021/12/10 05:15:21;;;;;;;0.67;0.67;;;-2.80;99.90;;;;;;5012982;28;20479;-77
2021/12/10 05:17:51;;;;;;;1.00;0.70;;;-2.70;99.90;;;;;;5012606;28;20968;-77
2021/12/10 05:20:24;;;;;;;2.30;1.07;;;-2.70;99.90;;;;;;5007903;28;21125;-77
2021/12/10 05:22:52;;;;;;;0.60;0.53;;;-2.80;99.90;;;;;;5020489;28;20470;-77
2021/12/10 05:25:19;;;;;;;1.90;1.10;;;-3.30;99.90;;;;;;5012593;28;20493;-77
2021/12/10 05:27:48;;;;;;;0.70;0.60;;;-3.80;99.90;;;;;;5020316;28;20494;-77
2021/12/10 05:30:19;;;;;;;0.87;0.87;;;-4.30;99.90;;;;;;5013677;28;20448;-77
2021/12/10 05:32:47;;;;;;;1.57;1.00;;;-4.70;99.90;;;;;;5012692;28;20505;-77
2021/12/10 05:35:14;;;;;;;1.07;0.97;;;-4.30;99.90;;;;;;5016104;28;20987;-77
2021/12/10 05:37:41;;;;;;;1.90;0.83;;;-4.00;99.90;;;;;;5015075;28;20476;-77
2021/12/10 05:40:12;;;;;;;0.63;0.63;;;-3.80;99.90;;;;;;5010744;28;20557;-77
2021/12/10 05:42:40;;;;;;;1.33;1.30;;;-3.50;99.90;;;;;;5009705;28;20558;-77
2021/12/10 05:45:09;;;;;;;1.30;1.20;;;-3.40;99.90;;;;;;5011798;28;20952;-77
2021/12/10 05:47:36;;;;;;;1.50;1.00;;;-3.30;99.90;;;;;;5012261;28;20478;-77
2021/12/10 05:50:06;;;;;;;1.17;1.07;;;-3.30;99.90;;;;;;5007495;28;20479;-76
2021/12/10 05:52:33;;;;;;;1.03;0.90;;;-3.40;99.90;;;;;;5007667;28;20490;-77
2021/12/10 05:55:00;;;;;;;0.70;0.70;;;-3.50;99.90;;;;;;5007974;28;20529;-77
2021/12/10 05:57:27;;;;;;;2.10;1.73;;;-3.80;99.90;;;;;;5010965;28;20526;-77
2021/12/10 05:59:54;;;;;;;1.63;1.20;;;-3.60;99.90;;;;;;5009658;28;21132;-77
2021/12/10 06:02:22;;;;;;;5.67;4.50;;;-3.60;99.90;;;;;;5005090;28;20541;-77
2021/12/10 06:04:49;;;;;;;3.10;2.37;;;-3.60;99.90;;;;;;5009061;28;20487;-77
2021/12/10 06:07:17;;;;;;;2.00;1.17;;;-4.20;99.90;;;;;;5004743;28;20967;-77
2021/12/10 06:09:44;;;;;;;5.17;2.43;;;-4.10;99.90;;;;;;5009179;28;20538;-77
2021/12/10 06:12:11;;;;;;;2.63;2.43;;;-3.90;99.90;;;;;;5012197;28;20447;-77
2021/12/10 06:14:40;;;;;;;2.33;2.13;;;-3.70;99.90;;;;;;5054217;22;21076;-51
2021/12/10 06:17:07;;;;;;;4.87;4.47;;;-3.60;99.90;;;;;;5042522;28;20459;-50
2021/12/10 06:19:35;;;;;;;3.97;3.67;;;-3.60;99.90;;;;;;5026973;28;20506;-52
2021/12/10 06:22:03;;;;;;;2.27;2.07;;;-3.60;99.90;;;;;;5025165;28;20585;-50
2021/12/10 06:24:30;;;;;;;2.90;2.60;;;-3.60;99.90;;;;;;5025829;28;20537;-52
2021/12/10 06:26:57;;;;;;;5.00;3.20;;;-4.70;99.90;;;;;;5088432;22;20525;-54
2021/12/10 06:29:26;;;;;;;3.00;2.80;;;-4.60;99.90;;;;;;5049958;28;20492;-54
2021/12/10 06:31:55;;;;;;;4.50;4.10;;;-4.30;99.90;;;;;;5048862;28;20434;-55
2021/12/10 06:34:22;;;;;;;1.80;1.70;;;-4.10;99.90;;;;;;5047718;28;20883;-54
2021/12/10 06:36:51;;;;;;;1.60;1.20;;;-3.90;99.90;;;;;;5042878;28;20494;-54
2021/12/10 06:39:20;;;;;;;0.60;0.60;;;-3.90;99.90;;;;;;5027199;28;20525;-55
2021/12/10 06:41:49;;;;;;;1.17;1.03;;;-4.30;99.90;;;;;;5035235;28;20484;-54
2021/12/10 06:44:16;;;;;;;1.70;1.07;;;-4.10;99.90;;;;;;5039197;28;20450;-53
2021/12/10 06:46:44;;;;;;;1.63;1.43;;;-3.90;99.90;;;;;;5029651;28;20874;-54
2021/12/10 06:49:12;;;;;;;1.53;0.80;;;-3.80;99.90;;;;;;5029627;28;20446;-54
2021/12/10 06:51:39;;;;;;;0.90;0.90;;;-3.70;99.90;;;;;;5032390;28;20478;-55
2021/12/10 06:54:08;;;;;;;2.47;1.20;;;-3.70;99.90;;;;;;5028948;28;20481;-54
2021/12/10 06:56:36;;;;;;;1.00;0.90;;;-4.00;99.90;;;;;;5034591;28;20498;-54
2021/12/10 06:59:05;;;;;;;1.10;1.00;;;-4.40;99.90;;;;;;5026977;28;20546;-56
2021/12/10 07:01:35;;;;;;;0.83;0.83;;;-4.50;99.90;;;;;;5036528;28;20556;-54
2021/12/10 07:04:04;;;;;;;5.70;5.10;;;-4.20;99.90;;;;;;5038261;28;20470;-54
2021/12/10 07:06:32;;;;;;;1.77;1.67;;;-4.10;99.90;;;;;;5031834;28;20700;-54
2021/12/10 07:09:01;;;;;;;2.53;2.30;;;-4.40;99.90;;;;;;5025156;28;20531;-53
2021/12/10 07:11:29;;;;;;;3.87;3.43;;;-4.10;99.90;;;;;;5032839;28;21021;-54
2021/12/10 07:13:58;;;;;;;3.23;2.80;;;-4.00;99.90;;;;;;5031009;28;21028;-54
2021/12/10 07:16:27;;;;;;;1.83;1.70;;;-4.80;99.90;;;;;;5030107;28;20557;-54
2021/12/10 07:18:56;;;;;;;2.00;1.90;;;-4.70;99.90;;;;;;5032147;28;21061;-54
2021/12/10 07:21:23;;;;;;;1.60;1.50;;;-4.40;99.90;;;;;;5035645;28;20564;-55
2021/12/10 07:23:51;;;;;;;2.23;2.10;;;-4.30;99.90;;;;;;5033359;28;20447;-53
2021/12/10 07:26:18;;;;;;;4.53;4.10;;;-4.30;99.90;;;;;;5030107;28;20558;-55
2021/12/10 07:28:46;;;;;;;8.00;4.93;;;-4.10;99.90;;;;;;5042893;28;20524;-54
2021/12/10 07:31:14;;;;;;;6.83;5.23;;;-4.10;99.90;;;;;;5020857;28;21001;-54
2021/12/10 07:33:42;;;;;;;7.70;5.60;;;-4.10;99.90;;;;;;5022262;28;20567;-54
2021/12/10 07:36:10;;;;;;;4.87;3.50;;;-4.90;99.90;;;;;;5027419;28;20498;-54
2021/12/10 07:38:37;;;;;;;4.23;3.73;;;-5.10;99.90;;;;;;5027528;28;20565;-55
2021/12/10 07:41:06;;;;;;;5.37;4.47;;;-4.90;99.90;;;;;;5030356;28;20569;-55
2021/12/10 07:43:33;;;;;;;3.73;3.43;;;-4.70;99.90;;;;;;5026039;28;20506;-55
2021/12/10 07:46:02;;;;;;;4.37;3.90;;;-4.40;99.90;;;;;;5025813;28;20562;-56
2021/12/10 07:48:29;;;;;;;6.53;4.40;;;-4.20;99.90;;;;;;5028005;28;20901;-53
2021/12/10 07:51:01;;;;;;;8.27;4.80;;;-4.20;99.90;;;;;;5032879;28;20437;-54
2021/12/10 07:53:31;;;;;;;8.53;6.00;;;-4.10;99.90;;;;;;5026313;28;20494;-55
2021/12/10 07:56:01;;;;;;;11.13;7.67;;;-4.00;99.90;;;;;;5029442;28;20501;-54
2021/12/10 07:58:28;;;;;;;7.20;6.47;;;-4.20;99.90;;;;;;5030159;28;20449;-55
2021/12/10 08:00:55;;;;;;;7.73;5.50;;;-4.30;99.90;;;;;;5021680;28;20565;-54
2021/12/10 08:03:24;;;;;;;31.87;21.67;;;-4.70;99.90;;;;;;5023864;28;20474;-53
2021/12/10 08:05:53;;;;;;;27.93;17.53;;;-4.70;99.90;;;;;;5027756;28;20470;-54
2021/12/10 08:08:20;;;;;;;12.30;10.40;;;-4.40;99.90;;;;;;5027432;28;20537;-54
2021/12/10 08:10:47;;;;;;;9.10;6.57;;;-4.30;99.90;;;;;;5029539;28;20485;-54
2021/12/10 08:13:15;;;;;;;9.70;7.00;;;-4.10;99.90;;;;;;5036314;28;20869;-53
2021/12/10 08:15:42;;;;;;;12.57;10.80;;;-4.00;99.90;;;;;;5032600;28;20714;-54
2021/12/10 08:18:11;;;;;;;8.00;5.80;;;-3.90;99.90;;;;;;5027651;28;20489;-54
2021/12/10 08:20:40;;;;;;;4.13;3.80;;;-3.80;99.90;;;;;;5027117;28;20806;-54
2021/12/10 08:23:08;;;;;;;13.70;9.00;;;-3.70;99.90;;;;;;5027450;28;20474;-55
2021/12/10 08:25:36;;;;;;;9.50;6.00;;;-3.60;99.90;;;;;;5030489;28;20529;-54
2021/12/10 08:28:04;;;;;;;11.03;9.93;;;-3.60;99.90;;;;;;5029260;28;20498;-54
2021/12/10 08:30:33;;;;;;;16.50;11.53;;;-3.60;99.90;;;;;;5025975;28;20943;-54
2021/12/10 08:33:00;;;;;;;11.67;8.50;;;-3.60;99.90;;;;;;5025443;28;20481;-54
2021/12/10 08:35:31;;;;;;;5.00;4.20;;;-3.90;99.90;;;;;;5024687;28;20442;-54
2021/12/10 08:38:02;;;;;;;6.43;4.17;;;-4.50;99.90;;;;;;5028825;28;20545;-54
2021/12/10 08:40:34;;;;;;;3.37;3.17;;;-4.20;99.90;;;;;;5028086;28;20760;-54
2021/12/10 08:43:01;;;;;;;2.10;1.90;;;-4.00;99.90;;;;;;5036451;28;20453;-55
2021/12/10 08:45:30;;;;;;;6.63;4.47;;;-3.70;99.90;;;;;;5024358;28;20536;-54
2021/12/10 08:47:59;;;;;;;6.20;4.63;;;-4.10;99.90;;;;;;5027506;28;20549;-54
2021/12/10 08:50:29;;;;;;;14.17;9.90;;;-3.80;99.90;;;;;;5027829;28;20528;-56
2021/12/10 08:53:03;;;;;;;14.43;8.43;;;-3.70;99.90;;;;;;5028665;28;20478;-54
2021/12/10 08:55:32;;;;;;;13.57;7.17;;;-4.10;99.90;;;;;;5028180;28;20481;-54
2021/12/10 08:58:00;;;;;;;13.57;11.07;;;-4.00;99.90;;;;;;5037192;28;20516;-54
2021/12/10 09:00:28;;;;;;;10.57;9.00;;;-4.00;99.90;;;;;;5036823;28;20533;-54
2021/12/10 09:02:57;;;;;;;11.67;8.50;;;-4.20;99.90;;;;;;5027757;28;20510;-54
2021/12/10 09:05:24;;;;;;;49.37;14.50;;;-3.90;99.90;;;;;;5032502;28;20522;-54
2021/12/10 09:07:51;;;;;;;6.03;4.83;;;-3.70;99.90;;;;;;5026010;28;20544;-54
2021/12/10 09:10:23;;;;;;;4.77;3.50;;;-3.70;99.90;;;;;;5027737;28;20474;-54
2021/12/10 09:12:51;;;;;;;4.73;4.30;;;-4.00;99.90;;;;;;5028398;28;20521;-54
2021/12/10 09:15:22;;;;;;;4.83;3.43;;;-3.90;99.90;;;;;;5028388;28;20464;-58
2021/12/10 09:17:52;;;;;;;4.20;3.80;;;-4.60;99.90;;;;;;5032845;28;20962;-53
2021/12/10 09:20:27;;;;;;;4.50;4.10;;;-4.50;99.90;;;;;;5027785;28;20446;-54
2021/12/10 09:22:54;;;;;;;6.50;5.90;;;-4.10;99.90;;;;;;5026619;28;20550;-54
2021/12/10 09:25:23;;;;;;;8.73;7.63;;;-3.90;99.90;;;;;;5033132;28;20529;-54
2021/12/10 09:27:50;;;;;;;7.10;6.40;;;-3.60;99.90;;;;;;5025069;28;20549;-55
2021/12/10 09:30:20;;;;;;;8.70;7.30;;;-3.60;99.90;;;;;;5025824;28;20525;-55
2021/12/10 09:32:48;;;;;;;12.30;8.90;;;-3.40;99.90;;;;;;5028344;28;20961;-59
2021/12/10 09:35:17;;;;;;;10.10;9.10;;;-3.20;99.90;;;;;;5029816;28;20886;-54
2021/12/10 09:37:44;;;;;;;11.17;8.83;;;-3.10;99.90;;;;;;5030857;28;20498;-54
2021/12/10 09:40:14;;;;;;;8.10;5.60;;;-3.20;99.90;;;;;;5031027;28;20480;-54
2021/12/10 09:42:44;;;;;;;4.67;4.27;;;-4.10;99.90;;;;;;5035996;28;20484;-54
2021/12/10 09:45:13;;;;;;;5.67;4.57;;;-3.90;99.90;;;;;;5032236;28;20537;-53
2021/12/10 09:47:40;;;;;;;6.57;5.93;;;-3.60;99.90;;;;;;5034133;28;20505;-54
2021/12/10 09:50:10;;;;;;;21.43;19.27;;;-3.40;99.90;;;;;;5029585;28;20982;-55
2021/12/10 09:52:38;;;;;;;25.60;18.20;;;-3.30;99.90;;;;;;5031064;28;20448;-54
2021/12/10 09:55:14;;;;;;;15.40;11.87;;;-3.10;99.90;;;;;;5029053;28;20864;-54
2021/12/10 09:57:43;;;;;;;14.07;10.93;;;-3.00;99.90;;;;;;5030047;28;20552;-54
2021/12/10 10:00:16;;;;;;;15.30;11.00;;;-3.00;99.90;;;;;;5036259;28;20510;-54
2021/12/10 10:02:43;;;;;;;24.53;22.03;;;-2.90;99.90;;;;;;5031496;28;20533;-54
2021/12/10 10:05:11;;;;;;;23.33;10.17;;;-3.00;99.90;;;;;;5031621;28;20442;-55
2021/12/10 10:07:38;;;;;;;5.97;5.37;;;-2.90;99.90;;;;;;5029547;28;20566;-53
2021/12/10 10:10:09;;;;;;;6.50;5.90;;;-3.00;99.90;;;;;;5025973;28;20469;-56
2021/12/10 10:12:40;;;;;;;5.60;5.03;;;-2.80;99.90;;;;;;5024755;28;20857;-54
2021/12/10 10:15:12;;;;;;;9.60;6.80;;;-2.60;99.90;;;;;;5026882;28;20474;-53
2021/12/10 10:17:39;;;;;;;7.63;6.93;;;-2.40;99.90;;;;;;5028351;28;21060;-55
2021/12/10 10:20:08;;;;;;;8.47;7.73;;;-2.50;99.90;;;;;;5031200;28;20975;-54
2021/12/10 10:22:35;;;;;;;13.30;8.40;;;-2.40;99.90;;;;;;5033212;28;20566;-53
2021/12/10 10:25:07;;;;;;;32.73;23.60;;;-2.30;99.90;;;;;;5028634;28;20525;-56
2021/12/10 10:27:37;;;;;;;7.73;6.90;;;-2.20;99.90;;;;;;5033216;28;20839;-54
2021/12/10 10:30:11;;;;;;;2.83;2.63;;;-2.10;99.90;;;;;;5042831;28;20756;-55
2021/12/10 10:32:43;;;;;;;4.70;3.30;;;-2.40;99.90;;;;;;5032669;28;20469;-54
2021/12/10 10:35:16;;;;;;;4.93;3.63;;;-2.40;99.90;;;;;;5029749;28;20444;-54
2021/12/10 10:37:43;;;;;;;6.53;5.93;;;-2.20;99.90;;;;;;5029923;28;20462;-55
2021/12/10 10:40:14;;;;;;;32.00;20.63;;;-2.10;99.90;;;;;;5029342;28;20538;-54
2021/12/10 10:42:42;;;;;;;23.20;17.10;;;-2.00;99.90;;;;;;5034420;28;20560;-56
2021/12/10 10:45:17;;;;;;;18.57;14.13;;;-1.90;99.90;;;;;;5034455;28;20520;-54
2021/12/10 10:47:44;;;;;;;22.10;15.27;;;-2.30;99.90;;;;;;5036924;28;20520;-55
2021/12/10 10:50:14;;;;;;;18.53;16.67;;;-2.40;99.90;;;;;;5032952;28;20549;-55
2021/12/10 10:52:43;;;;;;;15.30;13.80;;;-2.30;99.90;;;;;;5031910;28;20451;-54
2021/12/10 10:55:20;;;;;;;16.43;13.30;;;-2.10;99.90;;;;;;5027087;28;20505;-56
2021/12/10 10:57:55;;;;;;;9.20;7.37;;;-2.00;99.90;;;;;;5027193;28;20544;-60
2021/12/10 11:00:32;;;;;;;9.23;6.10;;;-2.30;99.90;;;;;;5028015;28;20484;-56
2021/12/10 11:03:06;;;;;;;9.97;8.93;;;-2.10;99.90;;;;;;5030114;28;20550;-55
2021/12/10 11:05:34;;;;;;;12.40;9.70;;;-2.00;99.90;;;;;;5034126;28;20510;-56
2021/12/10 11:08:04;;;;;;;11.77;8.93;;;-1.90;99.90;;;;;;5031382;28;20714;-55
2021/12/10 11:10:36;;;;;;;13.70;10.90;;;-2.40;99.90;;;;;;5027122;28;20529;-56
2021/12/10 11:13:20;;;;;;;14.57;13.17;;;-2.50;99.90;;;;;;5028077;28;20534;-55
2021/12/10 11:16:04;;;;;;;15.13;8.47;;;-2.20;99.90;;;;;;5031932;28;20458;-54
2021/12/10 11:18:43;;;;;;;8.20;7.20;;;-2.00;99.90;;;;;;5032412;28;20539;-54
2021/12/10 11:21:10;;;;;;;8.90;8.00;;;-1.80;99.90;;;;;;5032324;28;20538;-55
2021/12/10 11:23:39;;;;;;;12.77;10.83;;;-1.60;99.90;;;;;;5026774;28;20477;-53
2021/12/10 11:26:08;;;;;;;15.03;11.67;;;-1.50;99.90;;;;;;5029050;28;20475;-55
2021/12/10 11:28:38;;;;;;;11.67;10.47;;;-1.40;99.90;;;;;;5030279;28;20451;-54
2021/12/10 11:31:11;;;;;;;7.73;6.87;;;-1.30;99.90;;;;;;5029017;28;20442;-55
2021/12/10 11:33:42;;;;;;;14.23;11.00;;;-1.50;99.90;;;;;;5030483;28;20489;-55
2021/12/10 11:36:11;;;;;;;14.90;11.87;;;-2.00;99.90;;;;;;5027214;28;20470;-55
2021/12/10 11:38:41;;;;;;;12.63;11.33;;;-1.80;99.90;;;;;;5031325;28;20510;-54
2021/12/10 11:41:12;;;;;;;14.10;11.77;;;-1.60;99.90;;;;;;5031249;28;20451;-55
2021/12/10 11:43:52;;;;;;;12.77;10.77;;;-1.50;99.90;;;;;;5031720;28;20519;-55
2021/12/10 11:46:45;;;;;;;11.63;8.50;;;-1.30;99.90;;;;;;5030907;28;20480;-54
2021/12/10 11:49:17;;;;;;;14.13;11.40;;;-1.60;99.90;;;;;;5029146;28;20447;-55
2021/12/10 11:51:47;;;;;;;11.03;9.93;;;-1.50;99.90;;;;;;5030617;28;20488;-56
2021/12/10 11:54:25;;;;;;;10.30;9.20;;;-1.50;99.90;;;;;;5032185;28;20853;-54
2021/12/10 11:56:57;;;;;;;9.07;8.17;;;-1.50;99.90;;;;;;5031539;28;20557;-55
2021/12/10 11:59:27;;;;;;;8.40;7.40;;;-1.40;99.90;;;;;;5030728;28;21026;-55
2021/12/10 12:01:59;;;;;;;8.00;7.20;;;-1.30;99.90;;;;;;5024347;28;20447;-55
2021/12/10 12:04:32;;;;;;;9.67;7.37;;;-1.40;99.90;;;;;;5029477;28;21023;-56
2021/12/10 12:07:21;;;;;;;8.10;7.40;;;-1.30;99.90;;;;;;5030293;28;20514;-55
2021/12/10 12:09:51;;;;;;;9.90;8.90;;;-1.30;99.90;;;;;;5030591;28;20531;-56
2021/12/10 12:12:21;;;;;;;8.77;7.20;;;-1.40;99.90;;;;;;5029702;28;20495;-55
2021/12/10 12:14:52;;;;;;;12.30;9.90;;;-1.50;99.90;;;;;;5036824;28;20484;-55
2021/12/10 12:17:37;;;;;;;10.47;9.00;;;-1.30;99.90;;;;;;5032553;28;20474;-55
2021/12/10 12:20:22;;;;;;;13.37;8.90;;;-1.30;99.90;;;;;;5031272;28;20539;-54
2021/12/10 12:25:41;;;;;;;10.93;8.93;;;-1.40;99.90;;;;;;5029113;28;20827;-55
2021/12/10 12:28:12;;;;;;;11.50;9.20;;;-1.20;99.90;;;;;;5088141;22;20514;-50
2021/12/10 12:30:59;;;;;;;15.63;11.63;;;-1.10;99.90;;;;;;5028653;28;20543;-49
2021/12/10 12:33:30;;;;;;;10.97;9.50;;;-1.10;99.90;;;;;;5026210;28;20522;-49
2021/12/10 12:35:58;;;;;;;11.13;9.83;;;-1.20;99.90;;;;;;5026766;28;20509;-51
2021/12/10 12:38:29;;;;;;;10.70;9.60;;;-1.10;99.90;;;;;;5007652;28;20538;-49
2021/12/10 12:41:25;;;;;;;13.77;9.90;;;-1.10;99.90;;;;;;5007684;28;20451;-50
2021/12/10 12:44:13;;;;;;;10.47;9.37;;;-1.20;99.90;;;;;;4963722;28;20484;-50
2021/12/10 12:47:01;;;;;;;10.20;8.63;;;-1.00;99.90;;;;;;5005131;28;20553;-49
2021/12/10 12:49:50;;;;;;;11.77;9.10;;;-1.40;99.90;;;;;;5007529;28;20518;-50
2021/12/10 12:52:21;;;;;;;9.80;8.80;;;-1.40;99.90;;;;;;5009492;28;20513;-51
2021/12/10 12:55:18;;;;;;;11.13;9.43;;;-1.30;99.90;;;;;;5013481;28;20527;-50
2021/12/10 12:57:48;;;;;;;9.13;8.33;;;-1.60;99.90;;;;;;5016812;28;20508;-51
2021/12/10 13:00:19;;;;;;;10.93;9.93;;;-1.40;99.90;;;;;;5006569;28;20539;-51
2021/12/10 13:02:50;;;;;;;12.17;9.00;;;-1.30;99.90;;;;;;5016022;28;20489;-51
2021/12/10 13:05:19;;;;;;;12.40;11.10;;;-1.40;99.90;;;;;;5024602;28;20494;-50